createdAt,value
2018-06-17T00:01:49.282Z,6.83
2018-06-17T00:04:16.578Z,6.90
2018-06-17T00:06:43.879Z,6.20
2018-06-17T00:09:11.206Z,6.30
2018-06-17T00:11:38.539Z,6.30
2018-06-17T00:14:05.942Z,6.53
2018-06-17T00:16:33.190Z,7.10
2018-06-17T00:19:00.483Z,6.17
2018-06-17T00:21:27.803Z,5.97
2018-06-17T00:23:55.137Z,5.90
2018-06-17T00:26:22.488Z,6.10
2018-06-17T00:28:49.789Z,6.37
2018-06-17T00:31:17.111Z,6.17
2018-06-17T00:33:44.398Z,5.93
2018-06-17T00:36:11.707Z,5.83
2018-06-17T00:38:38.999Z,5.90
2018-06-17T00:41:06.358Z,6.23
2018-06-17T00:43:33.776Z,6.30
2018-06-17T00:46:01.091Z,7.07
2018-06-17T00:48:28.419Z,6.33
2018-06-17T00:50:55.734Z,5.97
2018-06-17T00:53:23.093Z,6.03
2018-06-17T00:55:50.401Z,6.27
2018-06-17T00:58:17.698Z,5.97
2018-06-17T01:00:45.057Z,6.07
2018-06-17T01:03:12.426Z,5.37
2018-06-17T01:05:39.739Z,5.30
2018-06-17T01:08:07.087Z,5.60
2018-06-17T01:10:34.507Z,5.27
2018-06-17T01:13:01.876Z,5.03
2018-06-17T01:15:29.214Z,5.23
2018-06-17T01:17:56.532Z,7.23
2018-06-17T01:20:23.904Z,5.10
2018-06-17T01:22:51.240Z,5.70
2018-06-17T01:25:18.581Z,5.37
2018-06-17T01:27:45.912Z,5.77
2018-06-17T01:30:13.219Z,6.30
2018-06-17T01:32:40.554Z,5.97
2018-06-17T01:35:07.914Z,6.27
2018-06-17T01:37:35.235Z,5.87
2018-06-17T01:40:02.617Z,5.63
2018-06-17T01:42:30.072Z,6.50
2018-06-17T01:44:57.387Z,6.03
2018-06-17T01:47:24.741Z,5.50
2018-06-17T01:49:52.079Z,5.83
2018-06-17T01:52:19.444Z,5.67
2018-06-17T01:54:46.741Z,6.53
2018-06-17T01:57:14.098Z,6.63
2018-06-17T01:59:41.419Z,5.23
2018-06-17T02:02:08.768Z,6.20
2018-06-17T02:04:36.116Z,6.03
2018-06-17T02:07:03.436Z,6.10
2018-06-17T02:09:30.759Z,5.70
2018-06-17T02:11:58.103Z,5.40
2018-06-17T02:14:25.451Z,5.27
2018-06-17T02:16:52.787Z,5.60
2018-06-17T02:19:20.138Z,5.13
2018-06-17T02:21:47.492Z,5.27
2018-06-17T02:24:14.820Z,5.50
2018-06-17T02:26:42.174Z,4.80
2018-06-17T02:29:09.492Z,4.70
2018-06-17T02:31:36.725Z,4.03
2018-06-17T02:34:04.352Z,3.50
2018-06-17T02:36:31.699Z,4.63
2018-06-17T02:38:59.046Z,4.60
2018-06-17T02:41:26.413Z,4.40
2018-06-17T02:43:53.770Z,4.40
2018-06-17T02:46:21.183Z,4.60
2018-06-17T02:48:48.573Z,4.27
2018-06-17T02:51:15.952Z,3.83
2018-06-17T02:53:43.385Z,4.40
2018-06-17T02:56:10.655Z,3.90
2018-06-17T02:58:38.003Z,3.87
2018-06-17T03:01:05.428Z,3.60
2018-06-17T03:03:32.753Z,4.30
2018-06-17T03:05:59.975Z,4.30
2018-06-17T03:08:27.291Z,4.30
2018-06-17T03:10:54.623Z,4.00
2018-06-17T03:13:21.978Z,3.83
2018-06-17T03:15:49.326Z,3.73
2018-06-17T03:18:16.651Z,3.73
2018-06-17T03:20:44.002Z,3.50
2018-06-17T03:23:11.322Z,3.50
2018-06-17T03:25:38.694Z,2.93
2018-06-17T03:28:06.013Z,2.97
2018-06-17T03:30:33.355Z,4.40
2018-06-17T03:33:00.667Z,3.80
2018-06-17T03:35:28.050Z,3.50
2018-06-17T03:37:55.383Z,3.40
2018-06-17T03:40:22.710Z,3.47
2018-06-17T03:42:50.036Z,3.17
2018-06-17T03:45:17.379Z,3.27
2018-06-17T03:47:44.751Z,3.60
2018-06-17T03:50:12.091Z,3.80
2018-06-17T03:52:39.451Z,4.03
2018-06-17T03:55:06.884Z,3.70
2018-06-17T03:57:34.094Z,3.77
2018-06-17T04:00:01.417Z,3.37
2018-06-17T04:02:28.666Z,3.70
2018-06-17T04:04:56.009Z,3.90
2018-06-17T04:07:23.419Z,3.40
2018-06-17T04:09:50.624Z,3.83
2018-06-17T04:12:17.962Z,3.77
2018-06-17T04:14:45.146Z,4.17
2018-06-17T04:17:12.469Z,3.10
2018-06-17T04:19:39.821Z,3.50
2018-06-17T04:22:07.132Z,3.30
2018-06-17T04:24:34.438Z,2.70
2018-06-17T04:27:01.774Z,3.50
2018-06-17T04:29:29.097Z,4.00
2018-06-17T04:31:56.495Z,4.00
2018-06-17T04:34:23.841Z,3.80
2018-06-17T04:36:51.204Z,3.73
2018-06-17T04:39:18.567Z,3.73
2018-06-17T04:41:45.901Z,3.43
2018-06-17T04:44:13.263Z,4.50
2018-06-17T04:46:40.582Z,3.83
2018-06-17T04:49:07.948Z,3.87
2018-06-17T04:51:35.300Z,3.77
2018-06-17T04:54:02.614Z,3.50
2018-06-17T04:56:30.219Z,4.20
2018-06-17T04:58:57.566Z,4.37
2018-06-17T05:01:24.887Z,3.70
2018-06-17T05:03:52.347Z,3.90
2018-06-17T05:06:19.769Z,4.07
2018-06-17T05:08:47.127Z,3.93
2018-06-17T05:11:14.457Z,4.13
2018-06-17T05:13:41.778Z,3.80
2018-06-17T05:16:09.107Z,3.97
2018-06-17T05:18:36.453Z,3.67
2018-06-17T05:21:03.823Z,3.50
2018-06-17T05:23:31.189Z,4.00
2018-06-17T05:25:58.530Z,3.53
2018-06-17T05:28:25.960Z,3.63
2018-06-17T05:30:53.325Z,4.27
2018-06-17T05:33:20.651Z,3.50
2018-06-17T05:35:47.975Z,3.43
2018-06-17T05:38:15.322Z,2.90
2018-06-17T05:40:42.640Z,3.73
2018-06-17T05:43:09.960Z,3.83
2018-06-17T05:45:37.308Z,2.97
2018-06-17T05:48:05.155Z,3.37
2018-06-17T05:50:32.476Z,2.97
2018-06-17T05:52:59.799Z,2.80
2018-06-17T05:55:27.123Z,3.00
2018-06-17T05:57:54.451Z,3.10
2018-06-17T06:00:21.777Z,3.07
2018-06-17T06:02:49.095Z,3.70
2018-06-17T06:05:16.418Z,3.40
2018-06-17T06:07:43.766Z,2.90
2018-06-17T06:10:11.129Z,3.20
2018-06-17T06:12:38.459Z,2.60
2018-06-17T06:15:05.800Z,2.53
2018-06-17T06:17:33.155Z,3.03
2018-06-17T06:20:00.518Z,3.07
2018-06-17T06:22:27.895Z,2.93
2018-06-17T06:24:55.116Z,2.83
2018-06-17T06:27:22.549Z,3.10
2018-06-17T06:29:49.892Z,2.90
2018-06-17T06:32:17.210Z,2.53
2018-06-17T06:34:44.671Z,2.80
2018-06-17T06:37:12.145Z,2.77
2018-06-17T06:39:39.455Z,2.50
2018-06-17T06:42:06.907Z,2.90
2018-06-17T06:44:34.309Z,2.80
2018-06-17T06:47:01.654Z,2.60
2018-06-17T06:49:29.034Z,2.20
2018-06-17T06:51:56.414Z,2.60
2018-06-17T06:54:23.739Z,2.87
2018-06-17T06:56:51.097Z,3.03
2018-06-17T06:59:18.423Z,2.97
2018-06-17T07:01:57.119Z,3.20
2018-06-17T07:04:35.945Z,3.43
2018-06-17T07:07:14.715Z,2.87
2018-06-17T07:10:46.725Z,2.90
2018-06-17T07:13:14.018Z,3.00
2018-06-17T07:15:52.773Z,3.30
2018-06-17T07:18:28.827Z,3.00
2018-06-17T07:20:56.255Z,2.67
2018-06-17T07:23:23.551Z,2.93
2018-06-17T07:26:27.347Z,2.83
2018-06-17T07:29:06.173Z,2.53
2018-06-17T07:31:33.474Z,2.50
2018-06-17T07:34:00.779Z,2.77
2018-06-17T07:36:28.126Z,2.50
2018-06-17T07:38:55.431Z,2.90
2018-06-17T07:41:22.727Z,2.37
2018-06-17T07:43:49.958Z,2.50
2018-06-17T07:46:17.273Z,3.13
2018-06-17T07:49:54.228Z,2.80
2018-06-17T07:52:32.911Z,2.50
2018-06-17T07:55:00.245Z,2.60
2018-06-17T07:57:27.558Z,2.77
2018-06-17T07:59:55.025Z,2.40
2018-06-17T08:02:22.387Z,2.23
2018-06-17T08:04:49.746Z,2.03
2018-06-17T08:07:17.043Z,2.70
2018-06-17T08:09:44.355Z,2.50
2018-06-17T08:12:11.703Z,2.73
2018-06-17T08:14:39.011Z,2.43
2018-06-17T08:17:06.369Z,2.67
2018-06-17T08:19:33.683Z,2.37
2018-06-17T08:22:01.006Z,2.40
2018-06-17T08:24:28.315Z,3.10
2018-06-17T08:26:55.636Z,2.60
2018-06-17T08:29:22.967Z,2.83
2018-06-17T08:31:50.293Z,3.13
2018-06-17T08:34:17.599Z,2.57
2018-06-17T08:36:44.930Z,2.90
2018-06-17T08:39:12.251Z,2.80
2018-06-17T08:41:39.611Z,2.60
2018-06-17T08:44:07.063Z,2.60
2018-06-17T08:46:34.384Z,2.60
2018-06-17T08:49:01.744Z,2.80
2018-06-17T08:51:29.099Z,2.63
2018-06-17T08:53:56.660Z,2.50
2018-06-17T08:56:24.032Z,2.50
2018-06-17T08:58:51.386Z,2.70
2018-06-17T09:01:18.700Z,2.87
2018-06-17T09:03:46.138Z,2.60
2018-06-17T09:06:13.479Z,2.43
2018-06-17T09:08:40.814Z,3.10
2018-06-17T09:11:08.198Z,2.60
2018-06-17T09:13:35.546Z,2.03
2018-06-17T09:16:02.891Z,2.00
2018-06-17T09:18:30.276Z,2.50
2018-06-17T09:20:57.739Z,2.73
2018-06-17T09:23:25.167Z,2.20
2018-06-17T09:25:52.554Z,2.60
2018-06-17T09:28:19.916Z,2.80
2018-06-17T09:30:47.314Z,2.50
2018-06-17T09:33:14.674Z,1.87
2018-06-17T09:35:42.223Z,2.60
2018-06-17T09:38:09.551Z,2.87
2018-06-17T09:40:36.905Z,2.50
2018-06-17T09:43:04.443Z,2.77
2018-06-17T09:45:31.855Z,2.20
2018-06-17T09:47:59.167Z,2.40
2018-06-17T09:50:26.502Z,2.33
2018-06-17T09:52:53.831Z,2.40
2018-06-17T09:55:21.198Z,2.20
2018-06-17T09:57:48.591Z,2.33
2018-06-17T10:00:15.954Z,2.50
2018-06-17T10:02:43.339Z,2.10
2018-06-17T10:05:10.607Z,2.87
2018-06-17T10:07:37.955Z,1.90
2018-06-17T10:10:47.958Z,2.20
2018-06-17T10:13:15.376Z,2.30
2018-06-17T10:15:42.859Z,2.60
2018-06-17T10:18:10.390Z,2.10
2018-06-17T10:20:37.750Z,2.73
2018-06-17T10:23:05.336Z,2.60
2018-06-17T10:25:32.661Z,1.80
2018-06-17T10:28:00.055Z,1.93
2018-06-17T10:30:27.392Z,1.87
2018-06-17T10:32:54.759Z,1.80
2018-06-17T10:35:22.155Z,1.93
2018-06-17T10:37:49.536Z,1.60
2018-06-17T10:40:16.924Z,2.20
2018-06-17T10:42:44.239Z,2.10
2018-06-17T10:45:11.605Z,1.90
2018-06-17T10:47:38.899Z,1.90
2018-06-17T10:50:06.259Z,2.70
2018-06-17T10:52:33.594Z,1.60
2018-06-17T10:55:00.939Z,1.83
2018-06-17T10:57:28.332Z,4.90
2018-06-17T10:59:55.724Z,2.00
2018-06-17T11:02:23.146Z,1.70
2018-06-17T11:04:50.513Z,1.50
2018-06-17T11:07:17.846Z,2.13
2018-06-17T11:09:45.260Z,2.00
2018-06-17T11:12:12.716Z,2.40
2018-06-17T11:14:40.044Z,2.60
2018-06-17T11:17:07.364Z,2.07
2018-06-17T11:19:34.691Z,2.07
2018-06-17T11:22:02.120Z,1.83
2018-06-17T11:24:29.442Z,2.23
2018-06-17T11:26:56.904Z,2.10
2018-06-17T11:29:24.115Z,1.73
2018-06-17T11:31:51.440Z,1.63
2018-06-17T11:34:18.778Z,1.80
2018-06-17T11:36:46.167Z,2.10
2018-06-17T11:39:13.400Z,1.90
2018-06-17T11:41:40.699Z,2.03
2018-06-17T11:44:08.027Z,2.30
2018-06-17T11:46:35.344Z,2.30
2018-06-17T11:49:02.538Z,1.90
2018-06-17T11:51:29.912Z,2.23
2018-06-17T11:53:57.183Z,2.03
2018-06-17T11:56:24.546Z,2.33
2018-06-17T11:58:51.950Z,2.07
2018-06-17T12:01:19.304Z,2.13
2018-06-17T12:03:46.606Z,2.70
2018-06-17T12:06:13.952Z,2.33
2018-06-17T12:08:41.265Z,1.77
2018-06-17T12:11:08.586Z,2.47
2018-06-17T12:13:35.943Z,1.90
2018-06-17T12:16:03.309Z,2.00
2018-06-17T12:18:30.685Z,1.90
2018-06-17T12:20:58.040Z,2.23
2018-06-17T12:23:25.454Z,2.10
2018-06-17T12:25:52.774Z,2.20
2018-06-17T12:28:20.123Z,2.10
2018-06-17T12:30:47.439Z,1.90
2018-06-17T12:33:14.751Z,2.37
2018-06-17T12:35:42.098Z,2.40
2018-06-17T12:38:09.444Z,2.10
2018-06-17T12:40:36.783Z,1.87
2018-06-17T12:43:04.103Z,2.43
2018-06-17T12:45:31.564Z,2.23
2018-06-17T12:47:58.782Z,2.67
2018-06-17T12:50:26.428Z,2.27
2018-06-17T12:52:53.787Z,2.07
2018-06-17T12:55:21.129Z,2.10
2018-06-17T12:57:48.493Z,2.30
2018-06-17T13:00:15.783Z,2.40
2018-06-17T13:02:43.108Z,2.00
2018-06-17T13:05:10.517Z,2.90
2018-06-17T13:07:37.935Z,2.30
2018-06-17T13:10:05.284Z,3.40
2018-06-17T13:12:32.709Z,3.10
2018-06-17T13:15:00.093Z,2.67
2018-06-17T13:17:27.549Z,2.40
2018-06-17T13:19:54.922Z,2.23
2018-06-17T13:22:22.280Z,2.30
2018-06-17T13:24:49.578Z,2.07
2018-06-17T13:27:17.040Z,2.00
2018-06-17T13:29:44.244Z,2.60
2018-06-17T13:32:12.530Z,3.10
2018-06-17T13:34:39.846Z,2.33
2018-06-17T13:37:07.191Z,2.43
2018-06-17T13:39:34.511Z,3.00
2018-06-17T13:42:01.835Z,2.23
2018-06-17T13:44:29.469Z,2.20
2018-06-17T13:46:56.823Z,2.30
2018-06-17T13:49:24.130Z,2.60
2018-06-17T13:51:51.559Z,2.47
2018-06-17T13:54:18.933Z,2.40
2018-06-17T13:56:46.430Z,2.50
2018-06-17T13:59:13.823Z,2.43
2018-06-17T14:01:41.163Z,2.30
2018-06-17T14:04:08.501Z,2.40
2018-06-17T14:06:35.822Z,2.57
2018-06-17T14:09:06.277Z,2.40
2018-06-17T14:11:33.528Z,2.70
2018-06-17T14:14:00.977Z,2.87
2018-06-17T14:16:28.400Z,2.47
2018-06-17T14:18:55.756Z,2.57
2018-06-17T14:21:23.110Z,2.20
2018-06-17T14:23:50.501Z,2.97
2018-06-17T14:26:17.943Z,2.50
2018-06-17T14:28:45.391Z,2.50
2018-06-17T14:31:12.718Z,2.60
2018-06-17T14:33:40.131Z,2.70
2018-06-17T14:36:07.498Z,2.73
2018-06-17T14:38:34.903Z,2.77
2018-06-17T14:41:02.661Z,2.97
2018-06-17T14:43:29.987Z,2.60
2018-06-17T14:45:57.294Z,2.67
2018-06-17T14:48:24.742Z,2.60
2018-06-17T14:50:52.043Z,2.40
2018-06-17T14:53:19.367Z,2.83
2018-06-17T14:55:46.670Z,2.73
2018-06-17T14:58:13.975Z,2.20
2018-06-17T15:00:41.337Z,3.23
2018-06-17T15:03:08.686Z,2.70
2018-06-17T15:05:36.012Z,2.17
2018-06-17T15:08:03.369Z,2.70
2018-06-17T15:10:30.691Z,2.30
2018-06-17T15:12:58.038Z,2.93
2018-06-17T15:15:25.429Z,2.40
2018-06-17T15:17:52.752Z,2.07
2018-06-17T15:20:20.033Z,2.57
2018-06-17T15:22:47.345Z,2.93
2018-06-17T15:25:14.649Z,2.60
2018-06-17T15:27:41.962Z,2.47
2018-06-17T15:30:09.259Z,2.60
2018-06-17T15:32:36.565Z,2.50
2018-06-17T15:35:03.875Z,2.60
2018-06-17T15:37:31.216Z,2.47
2018-06-17T15:39:58.525Z,2.10
2018-06-17T15:42:25.833Z,2.47
2018-06-17T15:44:53.372Z,2.67
2018-06-17T15:47:20.663Z,2.30
2018-06-17T15:49:47.998Z,2.40
2018-06-17T15:52:15.307Z,2.43
2018-06-17T15:54:42.654Z,2.10
2018-06-17T15:57:10.230Z,1.93
2018-06-17T15:59:37.463Z,2.50
2018-06-17T16:02:04.903Z,2.50
2018-06-17T16:04:32.228Z,2.40
2018-06-17T16:06:59.517Z,2.37
2018-06-17T16:09:26.835Z,2.57
2018-06-17T16:11:54.207Z,2.43
2018-06-17T16:14:21.495Z,2.00
2018-06-17T16:16:48.804Z,2.03
2018-06-17T16:19:16.102Z,2.00
2018-06-17T16:21:43.420Z,2.13
2018-06-17T16:24:10.792Z,2.40
2018-06-17T16:26:38.217Z,2.40
2018-06-17T16:29:05.514Z,2.30
2018-06-17T16:31:32.884Z,2.00
2018-06-17T16:34:00.591Z,2.30
2018-06-17T16:36:27.974Z,2.20
2018-06-17T16:38:55.875Z,2.63
2018-06-17T16:41:23.298Z,2.20
2018-06-17T16:43:50.618Z,2.60
2018-06-17T16:46:18.256Z,2.83
2018-06-17T16:48:45.613Z,2.30
2018-06-17T16:51:12.905Z,2.50
2018-06-17T16:53:40.210Z,2.10
2018-06-17T16:56:07.851Z,2.63
2018-06-17T16:58:35.432Z,2.30
2018-06-17T17:01:03.157Z,2.40
2018-06-17T17:03:30.474Z,2.40
2018-06-17T17:05:57.862Z,2.63
2018-06-17T17:08:25.186Z,2.47
2018-06-17T17:10:52.523Z,2.23
2018-06-17T17:13:19.834Z,2.17
2018-06-17T17:15:47.204Z,2.37
2018-06-17T17:18:14.565Z,2.60
2018-06-17T17:20:41.887Z,2.33
2018-06-17T17:23:09.235Z,1.80
2018-06-17T17:25:36.554Z,2.07
2018-06-17T17:28:03.862Z,2.20
2018-06-17T17:30:31.164Z,2.00
2018-06-17T17:32:58.530Z,2.13
2018-06-17T17:35:25.832Z,1.83
2018-06-17T17:37:53.169Z,2.03
2018-06-17T17:40:20.483Z,2.17
2018-06-17T17:42:47.976Z,2.33
2018-06-17T17:45:15.327Z,2.50
2018-06-17T17:47:42.730Z,2.30
2018-06-17T17:50:10.006Z,2.03
2018-06-17T17:52:37.345Z,2.57
2018-06-17T17:55:04.857Z,2.53
2018-06-17T17:57:32.158Z,1.90
2018-06-17T17:59:59.510Z,2.17
2018-06-17T18:02:26.819Z,2.73
2018-06-17T18:04:54.128Z,2.50
2018-06-17T18:07:21.438Z,2.60
2018-06-17T18:09:48.726Z,2.50
2018-06-17T18:12:16.043Z,2.30
2018-06-17T18:14:43.429Z,2.60
2018-06-17T18:17:10.733Z,2.17
2018-06-17T18:19:38.086Z,2.73
2018-06-17T18:22:05.423Z,2.00
2018-06-17T18:24:32.696Z,2.30
2018-06-17T18:27:00.033Z,2.43
2018-06-17T18:29:27.332Z,2.70
2018-06-17T18:31:54.818Z,3.67
2018-06-17T18:34:22.238Z,2.97
2018-06-17T18:36:49.558Z,2.80
2018-06-17T18:39:16.883Z,2.63
2018-06-17T18:41:44.243Z,2.27
2018-06-17T18:44:11.535Z,2.33
2018-06-17T18:46:38.847Z,2.27
2018-06-17T18:49:06.158Z,2.30
2018-06-17T18:51:33.462Z,2.40
2018-06-17T18:54:00.766Z,2.50
2018-06-17T18:56:28.186Z,2.70
2018-06-17T18:58:55.483Z,2.63
2018-06-17T19:01:22.832Z,3.10
2018-06-17T19:03:49.988Z,3.10
2018-06-17T19:06:17.283Z,3.00
2018-06-17T19:08:44.729Z,3.27
2018-06-17T19:11:12.154Z,3.30
2018-06-17T19:13:39.458Z,4.00
2018-06-17T19:16:08.791Z,3.40
2018-06-17T19:18:36.108Z,3.73
2018-06-17T19:21:03.412Z,3.63
2018-06-17T19:23:30.758Z,4.07
2018-06-17T19:25:58.049Z,3.40
2018-06-17T19:28:25.367Z,4.20
2018-06-17T19:30:52.675Z,3.73
2018-06-17T19:33:20.262Z,4.37
2018-06-17T19:35:47.618Z,4.67
2018-06-17T19:38:14.960Z,4.20
2018-06-17T19:40:42.153Z,4.37
2018-06-17T19:43:09.447Z,3.90
2018-06-17T19:45:37.103Z,3.53
2018-06-17T19:48:04.366Z,3.50
2018-06-17T19:50:31.822Z,3.23
2018-06-17T19:52:59.787Z,3.37
2018-06-17T19:55:26.979Z,3.80
2018-06-17T19:57:54.275Z,3.97
2018-06-17T20:00:21.830Z,3.80
2018-06-17T20:02:49.239Z,3.87
2018-06-17T20:05:16.539Z,3.23
2018-06-17T20:07:43.921Z,3.27
2018-06-17T20:10:11.235Z,4.10
2018-06-17T20:12:38.574Z,3.70
2018-06-17T20:15:05.886Z,3.50
2018-06-17T20:17:33.240Z,3.83
2018-06-17T20:20:00.552Z,3.50
2018-06-17T20:22:27.854Z,3.90
2018-06-17T20:24:55.168Z,4.00
2018-06-17T20:27:23.186Z,3.77
2018-06-17T20:29:50.538Z,3.77
2018-06-17T20:32:17.881Z,4.10
2018-06-17T20:34:45.932Z,4.07
2018-06-17T20:37:13.412Z,3.53
2018-06-17T20:39:40.726Z,3.90
2018-06-17T20:42:07.932Z,3.50
2018-06-17T20:44:35.248Z,3.63
2018-06-17T20:47:02.796Z,4.00
2018-06-17T20:49:30.781Z,3.90
2018-06-17T20:51:58.114Z,4.07
2018-06-17T20:54:25.984Z,3.70
2018-06-17T20:56:53.389Z,3.60
2018-06-17T20:59:20.678Z,3.83
2018-06-17T21:01:48.044Z,2.90
2018-06-17T21:04:15.378Z,3.80
2018-06-17T21:06:42.928Z,3.83
2018-06-17T21:09:10.848Z,3.37
2018-06-17T21:11:38.211Z,4.27
2018-06-17T21:14:05.584Z,3.37
2018-06-17T21:16:32.942Z,3.50
2018-06-17T21:19:00.655Z,3.37
2018-06-17T21:21:27.963Z,3.43
2018-06-17T21:23:55.326Z,4.23
2018-06-17T21:26:22.942Z,3.97
2018-06-17T21:28:50.279Z,3.13
2018-06-17T21:31:17.636Z,3.67
2018-06-17T21:33:44.995Z,3.37
2018-06-17T21:36:12.331Z,3.50
2018-06-17T21:38:39.645Z,3.30
2018-06-17T21:41:07.215Z,3.63
2018-06-17T21:43:34.559Z,3.97
2018-06-17T21:46:01.855Z,3.27
2018-06-17T21:48:29.209Z,3.53
2018-06-17T21:50:56.666Z,4.13
2018-06-17T21:53:23.963Z,3.43
2018-06-17T21:55:51.290Z,4.23
2018-06-17T21:58:18.621Z,3.83
2018-06-17T22:00:45.930Z,3.90
2018-06-17T22:03:13.286Z,3.67
2018-06-17T22:05:40.656Z,3.27
2018-06-17T22:08:07.983Z,3.13
2018-06-17T22:10:35.290Z,4.10
2018-06-17T22:13:02.678Z,4.10
2018-06-17T22:15:29.998Z,3.83
2018-06-17T22:17:57.341Z,3.57
2018-06-17T22:20:24.642Z,3.53
2018-06-17T22:22:52.003Z,3.13
2018-06-17T22:25:19.329Z,3.60
2018-06-17T22:27:46.655Z,3.80
2018-06-17T22:30:13.982Z,3.77
2018-06-17T22:32:41.274Z,4.20
2018-06-17T22:35:08.618Z,3.90
2018-06-17T22:37:35.959Z,3.77
2018-06-17T22:40:03.565Z,4.20
2018-06-17T22:42:30.882Z,4.97
2018-06-17T22:44:58.206Z,4.03
2018-06-17T22:47:25.500Z,3.73
2018-06-17T22:49:52.830Z,4.50
2018-06-17T22:52:20.152Z,4.27
2018-06-17T22:54:49.022Z,4.00
2018-06-17T22:57:16.350Z,3.70
2018-06-17T22:59:43.656Z,3.83
2018-06-17T23:02:10.979Z,3.73
2018-06-17T23:04:38.264Z,3.60
2018-06-17T23:07:05.585Z,4.03
2018-06-17T23:09:32.919Z,3.83
2018-06-17T23:12:00.224Z,4.27
2018-06-17T23:14:27.545Z,3.97
2018-06-17T23:16:54.842Z,4.13
2018-06-17T23:19:22.151Z,3.80
2018-06-17T23:21:49.470Z,4.20
2018-06-17T23:24:16.930Z,4.37
2018-06-17T23:26:44.276Z,3.93
2018-06-17T23:29:11.591Z,4.60
2018-06-17T23:31:38.905Z,4.50
2018-06-17T23:34:06.252Z,4.33
2018-06-17T23:36:33.556Z,4.30
2018-06-17T23:39:01.023Z,4.27
2018-06-17T23:41:28.331Z,4.13
2018-06-17T23:43:55.656Z,4.37
2018-06-17T23:46:22.964Z,4.07
2018-06-17T23:48:50.576Z,3.77
2018-06-17T23:51:17.885Z,4.10
2018-06-17T23:53:45.202Z,3.83
2018-06-17T23:56:12.513Z,4.40
2018-06-17T23:58:39.820Z,3.90
